sensor_id;sensor_type;location;lat;lon;timestamp;P1;durP1;ratioP1;P2;durP2;ratioP2
72771;SDS011;60894;42.544;1.516;2023-04-24T00:01:33;0.60;;;0.30;;
72771;SDS011;60894;42.544;1.516;2023-04-24T00:04:03;0.40;;;0.25;;
72771;SDS011;60894;42.544;1.516;2023-04-24T00:06:31;0.73;;;0.30;;
72771;SDS011;60894;42.544;1.516;2023-04-24T00:08:59;0.98;;;0.32;;
72771;SDS011;60894;42.544;1.516;2023-04-24T00:11:26;0.40;;;0.20;;
72771;SDS011;60894;42.544;1.516;2023-04-24T00:13:53;0.70;;;0.30;;
72771;SDS011;60894;42.544;1.516;2023-04-24T00:16:20;0.75;;;0.35;;
72771;SDS011;60894;42.544;1.516;2023-04-24T00:18:47;0.97;;;0.30;;
72771;SDS011;60894;42.544;1.516;2023-04-24T00:21:15;0.98;;;0.30;;
72771;SDS011;60894;42.544;1.516;2023-04-24T00:23:42;1.10;;;0.45;;
72771;SDS011;60894;42.544;1.516;2023-04-24T00:26:09;1.02;;;0.32;;
72771;SDS011;60894;42.544;1.516;2023-04-24T00:28:36;0.75;;;0.30;;
72771;SDS011;60894;42.544;1.516;2023-04-24T00:31:03;0.90;;;0.40;;
72771;SDS011;60894;42.544;1.516;2023-04-24T00:33:30;0.75;;;0.30;;
72771;SDS011;60894;42.544;1.516;2023-04-24T00:35:57;1.23;;;0.50;;
72771;SDS011;60894;42.544;1.516;2023-04-24T00:38:26;2.38;;;0.40;;
72771;SDS011;60894;42.544;1.516;2023-04-24T00:40:53;0.55;;;0.35;;
72771;SDS011;60894;42.544;1.516;2023-04-24T00:43:20;0.40;;;0.27;;
72771;SDS011;60894;42.544;1.516;2023-04-24T00:45:47;1.35;;;0.30;;
72771;SDS011;60894;42.544;1.516;2023-04-24T00:48:14;0.55;;;0.30;;
72771;SDS011;60894;42.544;1.516;2023-04-24T00:50:41;0.30;;;0.10;;
72771;SDS011;60894;42.544;1.516;2023-04-24T00:53:08;0.25;;;0.20;;
72771;SDS011;60894;42.544;1.516;2023-04-24T00:55:36;0.63;;;0.30;;
72771;SDS011;60894;42.544;1.516;2023-04-24T00:58:04;2.00;;;0.30;;
72771;SDS011;60894;42.544;1.516;2023-04-24T01:00:31;0.65;;;0.38;;
72771;SDS011;60894;42.544;1.516;2023-04-24T01:02:58;1.10;;;0.30;;
72771;SDS011;60894;42.544;1.516;2023-04-24T01:05:27;2.08;;;0.40;;
72771;SDS011;60894;42.544;1.516;2023-04-24T01:07:54;0.70;;;0.33;;
72771;SDS011;60894;42.544;1.516;2023-04-24T01:10:22;1.70;;;0.40;;
72771;SDS011;60894;42.544;1.516;2023-04-24T01:12:53;1.15;;;0.40;;
72771;SDS011;60894;42.544;1.516;2023-04-24T01:15:20;1.13;;;0.30;;
72771;SDS011;60894;42.544;1.516;2023-04-24T01:17:47;0.77;;;0.40;;
72771;SDS011;60894;42.544;1.516;2023-04-24T01:20:15;0.67;;;0.27;;
72771;SDS011;60894;42.544;1.516;2023-04-24T01:22:44;1.08;;;0.30;;
72771;SDS011;60894;42.544;1.516;2023-04-24T01:25:11;1.73;;;0.30;;
72771;SDS011;60894;42.544;1.516;2023-04-24T01:27:38;0.65;;;0.30;;
72771;SDS011;60894;42.544;1.516;2023-04-24T01:30:06;0.90;;;0.43;;
72771;SDS011;60894;42.544;1.516;2023-04-24T01:32:33;1.07;;;0.30;;
72771;SDS011;60894;42.544;1.516;2023-04-24T01:35:01;0.73;;;0.25;;
72771;SDS011;60894;42.544;1.516;2023-04-24T01:37:28;0.82;;;0.30;;
72771;SDS011;60894;42.544;1.516;2023-04-24T01:39:58;1.15;;;0.28;;
72771;SDS011;60894;42.544;1.516;2023-04-24T01:42:25;3.30;;;0.43;;
72771;SDS011;60894;42.544;1.516;2023-04-24T01:44:52;1.07;;;0.40;;
72771;SDS011;60894;42.544;1.516;2023-04-24T01:47:20;0.80;;;0.20;;
72771;SDS011;60894;42.544;1.516;2023-04-24T01:49:47;0.40;;;0.30;;
72771;SDS011;60894;42.544;1.516;2023-04-24T01:52:14;1.05;;;0.30;;
72771;SDS011;60894;42.544;1.516;2023-04-24T01:54:42;0.30;;;0.13;;
72771;SDS011;60894;42.544;1.516;2023-04-24T01:57:11;1.03;;;0.30;;
72771;SDS011;60894;42.544;1.516;2023-04-24T01:59:38;1.33;;;0.30;;
72771;SDS011;60894;42.544;1.516;2023-04-24T02:02:05;1.23;;;0.65;;
72771;SDS011;60894;42.544;1.516;2023-04-24T02:04:32;0.90;;;0.35;;
72771;SDS011;60894;42.544;1.516;2023-04-24T02:06:59;0.45;;;0.30;;
72771;SDS011;60894;42.544;1.516;2023-04-24T02:09:26;0.70;;;0.40;;
72771;SDS011;60894;42.544;1.516;2023-04-24T02:11:53;1.25;;;0.30;;
72771;SDS011;60894;42.544;1.516;2023-04-24T02:14:22;1.17;;;0.30;;
72771;SDS011;60894;42.544;1.516;2023-04-24T02:16:49;0.68;;;0.30;;
72771;SDS011;60894;42.544;1.516;2023-04-24T02:19:16;0.75;;;0.30;;
72771;SDS011;60894;42.544;1.516;2023-04-24T02:21:43;1.63;;;0.40;;
72771;SDS011;60894;42.544;1.516;2023-04-24T02:24:10;0.20;;;0.20;;
72771;SDS011;60894;42.544;1.516;2023-04-24T02:26:37;0.82;;;0.30;;
72771;SDS011;60894;42.544;1.516;2023-04-24T02:29:04;0.75;;;0.25;;
72771;SDS011;60894;42.544;1.516;2023-04-24T02:31:32;0.85;;;0.30;;
72771;SDS011;60894;42.544;1.516;2023-04-24T02:33:59;9.83;;;1.90;;
72771;SDS011;60894;42.544;1.516;2023-04-24T02:36:26;11.60;;;2.53;;
72771;SDS011;60894;42.544;1.516;2023-04-24T02:38:53;5.65;;;0.77;;
72771;SDS011;60894;42.544;1.516;2023-04-24T02:41:20;1.23;;;0.28;;
72771;SDS011;60894;42.544;1.516;2023-04-24T02:43:47;1.10;;;0.30;;
72771;SDS011;60894;42.544;1.516;2023-04-24T02:46:14;0.20;;;0.20;;
72771;SDS011;60894;42.544;1.516;2023-04-24T02:48:42;0.30;;;0.30;;
72771;SDS011;60894;42.544;1.516;2023-04-24T02:51:09;0.80;;;0.20;;
72771;SDS011;60894;42.544;1.516;2023-04-24T02:53:36;0.65;;;0.40;;
72771;SDS011;60894;42.544;1.516;2023-04-24T02:56:03;0.43;;;0.28;;
72771;SDS011;60894;42.544;1.516;2023-04-24T02:58:30;0.20;;;0.10;;
72771;SDS011;60894;42.544;1.516;2023-04-24T03:00:57;0.30;;;0.28;;
72771;SDS011;60894;42.544;1.516;2023-04-24T03:03:24;3.45;;;1.00;;
72771;SDS011;60894;42.544;1.516;2023-04-24T03:05:52;0.98;;;0.40;;
72771;SDS011;60894;42.544;1.516;2023-04-24T03:08:20;1.33;;;0.40;;
72771;SDS011;60894;42.544;1.516;2023-04-24T03:10:47;0.60;;;0.33;;
72771;SDS011;60894;42.544;1.516;2023-04-24T03:13:14;0.70;;;0.28;;
72771;SDS011;60894;42.544;1.516;2023-04-24T03:15:42;0.30;;;0.20;;
72771;SDS011;60894;42.544;1.516;2023-04-24T03:18:09;1.08;;;0.60;;
72771;SDS011;60894;42.544;1.516;2023-04-24T03:20:36;1.80;;;0.30;;
72771;SDS011;60894;42.544;1.516;2023-04-24T03:23:04;0.83;;;0.23;;
72771;SDS011;60894;42.544;1.516;2023-04-24T03:25:31;0.57;;;0.30;;
72771;SDS011;60894;42.544;1.516;2023-04-24T03:27:58;0.30;;;0.20;;
72771;SDS011;60894;42.544;1.516;2023-04-24T03:30:25;0.20;;;0.20;;
72771;SDS011;60894;42.544;1.516;2023-04-24T03:32:52;0.70;;;0.30;;
72771;SDS011;60894;42.544;1.516;2023-04-24T03:35:19;1.17;;;0.23;;
72771;SDS011;60894;42.544;1.516;2023-04-24T03:37:46;1.10;;;0.32;;
72771;SDS011;60894;42.544;1.516;2023-04-24T03:40:14;1.55;;;0.35;;
72771;SDS011;60894;42.544;1.516;2023-04-24T03:42:41;0.82;;;0.30;;
72771;SDS011;60894;42.544;1.516;2023-04-24T03:45:08;0.77;;;0.38;;
72771;SDS011;60894;42.544;1.516;2023-04-24T03:47:36;0.43;;;0.23;;
72771;SDS011;60894;42.544;1.516;2023-04-24T03:50:03;1.92;;;0.30;;
72771;SDS011;60894;42.544;1.516;2023-04-24T03:52:30;0.30;;;0.20;;
72771;SDS011;60894;42.544;1.516;2023-04-24T03:54:57;1.52;;;0.40;;
72771;SDS011;60894;42.544;1.516;2023-04-24T03:57:26;0.47;;;0.20;;
72771;SDS011;60894;42.544;1.516;2023-04-24T03:59:52;0.57;;;0.20;;
72771;SDS011;60894;42.544;1.516;2023-04-24T04:02:20;1.10;;;0.30;;
72771;SDS011;60894;42.544;1.516;2023-04-24T04:04:47;0.98;;;0.40;;
72771;SDS011;60894;42.544;1.516;2023-04-24T04:07:14;1.02;;;0.35;;
72771;SDS011;60894;42.544;1.516;2023-04-24T04:09:40;0.68;;;0.30;;
72771;SDS011;60894;42.544;1.516;2023-04-24T04:12:07;0.30;;;0.20;;
72771;SDS011;60894;42.544;1.516;2023-04-24T04:14:36;0.77;;;0.40;;
72771;SDS011;60894;42.544;1.516;2023-04-24T04:17:03;5.90;;;0.43;;
72771;SDS011;60894;42.544;1.516;2023-04-24T04:19:30;0.20;;;0.20;;
72771;SDS011;60894;42.544;1.516;2023-04-24T04:21:57;1.38;;;0.40;;
72771;SDS011;60894;42.544;1.516;2023-04-24T04:24:24;0.90;;;0.30;;
72771;SDS011;60894;42.544;1.516;2023-04-24T04:26:51;1.20;;;0.38;;
72771;SDS011;60894;42.544;1.516;2023-04-24T04:29:21;2.08;;;0.30;;
72771;SDS011;60894;42.544;1.516;2023-04-24T04:31:50;0.45;;;0.15;;
72771;SDS011;60894;42.544;1.516;2023-04-24T04:34:17;0.30;;;0.20;;
72771;SDS011;60894;42.544;1.516;2023-04-24T04:36:44;0.27;;;0.20;;
72771;SDS011;60894;42.544;1.516;2023-04-24T04:39:11;1.10;;;0.40;;
72771;SDS011;60894;42.544;1.516;2023-04-24T04:41:39;0.30;;;0.30;;
72771;SDS011;60894;42.544;1.516;2023-04-24T04:44:06;0.28;;;0.20;;
72771;SDS011;60894;42.544;1.516;2023-04-24T04:46:33;1.20;;;0.40;;
72771;SDS011;60894;42.544;1.516;2023-04-24T04:49:03;0.77;;;0.30;;
72771;SDS011;60894;42.544;1.516;2023-04-24T04:51:31;1.70;;;0.40;;
72771;SDS011;60894;42.544;1.516;2023-04-24T04:53:58;1.13;;;0.30;;
72771;SDS011;60894;42.544;1.516;2023-04-24T04:56:25;0.45;;;0.30;;
72771;SDS011;60894;42.544;1.516;2023-04-24T04:58:52;1.00;;;0.40;;
72771;SDS011;60894;42.544;1.516;2023-04-24T05:01:19;0.90;;;0.50;;
72771;SDS011;60894;42.544;1.516;2023-04-24T05:03:46;0.80;;;0.30;;
72771;SDS011;60894;42.544;1.516;2023-04-24T05:06:14;0.77;;;0.30;;
72771;SDS011;60894;42.544;1.516;2023-04-24T05:08:41;0.57;;;0.30;;
72771;SDS011;60894;42.544;1.516;2023-04-24T05:11:08;0.60;;;0.40;;
72771;SDS011;60894;42.544;1.516;2023-04-24T05:13:35;1.90;;;0.50;;
72771;SDS011;60894;42.544;1.516;2023-04-24T05:16:02;1.33;;;0.40;;
72771;SDS011;60894;42.544;1.516;2023-04-24T05:18:29;1.38;;;0.40;;
72771;SDS011;60894;42.544;1.516;2023-04-24T05:20:56;2.03;;;0.55;;
72771;SDS011;60894;42.544;1.516;2023-04-24T05:23:24;2.78;;;0.70;;
72771;SDS011;60894;42.544;1.516;2023-04-24T05:25:51;0.87;;;0.40;;
72771;SDS011;60894;42.544;1.516;2023-04-24T05:28:18;2.03;;;0.60;;
72771;SDS011;60894;42.544;1.516;2023-04-24T05:30:46;1.23;;;0.60;;
72771;SDS011;60894;42.544;1.516;2023-04-24T05:33:13;1.40;;;0.57;;
72771;SDS011;60894;42.544;1.516;2023-04-24T05:35:40;1.58;;;0.80;;
72771;SDS011;60894;42.544;1.516;2023-04-24T05:38:11;1.43;;;0.60;;
72771;SDS011;60894;42.544;1.516;2023-04-24T05:40:39;3.10;;;0.80;;
72771;SDS011;60894;42.544;1.516;2023-04-24T05:43:06;1.65;;;0.90;;
72771;SDS011;60894;42.544;1.516;2023-04-24T05:45:33;1.42;;;0.50;;
72771;SDS011;60894;42.544;1.516;2023-04-24T05:48:01;2.00;;;0.75;;
72771;SDS011;60894;42.544;1.516;2023-04-24T05:50:28;2.13;;;0.67;;
72771;SDS011;60894;42.544;1.516;2023-04-24T05:52:55;1.65;;;0.77;;
72771;SDS011;60894;42.544;1.516;2023-04-24T05:55:23;3.00;;;0.90;;
72771;SDS011;60894;42.544;1.516;2023-04-24T05:57:52;1.00;;;0.60;;
72771;SDS011;60894;42.544;1.516;2023-04-24T06:00:21;2.10;;;0.80;;
72771;SDS011;60894;42.544;1.516;2023-04-24T06:02:48;3.70;;;0.70;;
72771;SDS011;60894;42.544;1.516;2023-04-24T06:05:15;3.38;;;1.60;;
72771;SDS011;60894;42.544;1.516;2023-04-24T06:07:42;4.97;;;1.50;;
72771;SDS011;60894;42.544;1.516;2023-04-24T06:10:10;3.67;;;1.50;;
72771;SDS011;60894;42.544;1.516;2023-04-24T06:12:37;4.18;;;1.50;;
72771;SDS011;60894;42.544;1.516;2023-04-24T06:15:06;3.80;;;1.30;;
72771;SDS011;60894;42.544;1.516;2023-04-24T06:17:33;4.70;;;1.50;;
72771;SDS011;60894;42.544;1.516;2023-04-24T06:20:00;3.15;;;1.60;;
72771;SDS011;60894;42.544;1.516;2023-04-24T06:22:29;9.35;;;4.20;;
72771;SDS011;60894;42.544;1.516;2023-04-24T06:24:56;7.60;;;3.97;;
72771;SDS011;60894;42.544;1.516;2023-04-24T06:27:23;11.57;;;4.77;;
72771;SDS011;60894;42.544;1.516;2023-04-24T06:29:50;8.63;;;3.70;;
72771;SDS011;60894;42.544;1.516;2023-04-24T06:32:21;11.45;;;6.35;;
72771;SDS011;60894;42.544;1.516;2023-04-24T06:34:49;14.07;;;6.30;;
72771;SDS011;60894;42.544;1.516;2023-04-24T06:37:16;16.13;;;10.23;;
72771;SDS011;60894;42.544;1.516;2023-04-24T06:39:46;11.00;;;4.70;;
72771;SDS011;60894;42.544;1.516;2023-04-24T06:42:13;10.20;;;5.10;;
72771;SDS011;60894;42.544;1.516;2023-04-24T06:44:40;14.25;;;5.40;;
72771;SDS011;60894;42.544;1.516;2023-04-24T06:47:07;11.63;;;5.43;;
72771;SDS011;60894;42.544;1.516;2023-04-24T06:49:36;9.95;;;4.47;;
72771;SDS011;60894;42.544;1.516;2023-04-24T06:52:04;7.73;;;3.60;;
72771;SDS011;60894;42.544;1.516;2023-04-24T06:54:31;8.45;;;3.85;;
72771;SDS011;60894;42.544;1.516;2023-04-24T06:56:58;7.68;;;3.22;;
72771;SDS011;60894;42.544;1.516;2023-04-24T06:59:25;10.85;;;5.30;;
72771;SDS011;60894;42.544;1.516;2023-04-24T07:01:57;25.08;;;11.98;;
72771;SDS011;60894;42.544;1.516;2023-04-24T07:04:23;12.53;;;5.97;;
72771;SDS011;60894;42.544;1.516;2023-04-24T07:06:52;6.70;;;3.15;;
72771;SDS011;60894;42.544;1.516;2023-04-24T07:09:23;6.47;;;3.00;;
72771;SDS011;60894;42.544;1.516;2023-04-24T07:11:50;7.30;;;2.85;;
72771;SDS011;60894;42.544;1.516;2023-04-24T07:14:18;7.28;;;2.80;;
72771;SDS011;60894;42.544;1.516;2023-04-24T07:16:45;6.87;;;2.50;;
72771;SDS011;60894;42.544;1.516;2023-04-24T07:19:12;6.22;;;2.50;;
72771;SDS011;60894;42.544;1.516;2023-04-24T07:21:40;6.32;;;2.13;;
72771;SDS011;60894;42.544;1.516;2023-04-24T07:24:08;6.93;;;2.53;;
72771;SDS011;60894;42.544;1.516;2023-04-24T07:26:36;6.72;;;2.70;;
72771;SDS011;60894;42.544;1.516;2023-04-24T07:29:04;5.17;;;2.17;;
72771;SDS011;60894;42.544;1.516;2023-04-24T07:31:31;5.32;;;2.10;;
72771;SDS011;60894;42.544;1.516;2023-04-24T07:33:57;6.00;;;1.70;;
72771;SDS011;60894;42.544;1.516;2023-04-24T07:36:24;3.30;;;1.23;;
72771;SDS011;60894;42.544;1.516;2023-04-24T07:38:53;3.70;;;1.48;;
72771;SDS011;60894;42.544;1.516;2023-04-24T07:41:22;4.20;;;1.20;;
72771;SDS011;60894;42.544;1.516;2023-04-24T07:43:50;4.28;;;1.70;;
72771;SDS011;60894;42.544;1.516;2023-04-24T07:46:17;2.90;;;1.58;;
72771;SDS011;60894;42.544;1.516;2023-04-24T07:48:44;6.55;;;1.90;;
72771;SDS011;60894;42.544;1.516;2023-04-24T07:51:13;5.85;;;2.05;;
72771;SDS011;60894;42.544;1.516;2023-04-24T07:53:40;4.63;;;1.40;;
72771;SDS011;60894;42.544;1.516;2023-04-24T07:56:07;2.40;;;1.08;;
72771;SDS011;60894;42.544;1.516;2023-04-24T07:58:35;3.72;;;1.33;;
72771;SDS011;60894;42.544;1.516;2023-04-24T08:01:02;4.25;;;1.33;;
72771;SDS011;60894;42.544;1.516;2023-04-24T08:03:29;3.58;;;1.27;;
72771;SDS011;60894;42.544;1.516;2023-04-24T08:05:55;7.80;;;1.40;;
72771;SDS011;60894;42.544;1.516;2023-04-24T08:08:22;3.72;;;1.40;;
72771;SDS011;60894;42.544;1.516;2023-04-24T08:10:50;7.55;;;2.50;;
72771;SDS011;60894;42.544;1.516;2023-04-24T08:13:17;6.40;;;2.28;;
72771;SDS011;60894;42.544;1.516;2023-04-24T08:15:45;5.40;;;1.80;;
72771;SDS011;60894;42.544;1.516;2023-04-24T08:18:12;6.03;;;1.87;;
72771;SDS011;60894;42.544;1.516;2023-04-24T08:20:40;5.68;;;1.65;;
72771;SDS011;60894;42.544;1.516;2023-04-24T08:23:07;2.35;;;0.98;;
72771;SDS011;60894;42.544;1.516;2023-04-24T08:25:34;10.57;;;2.13;;
72771;SDS011;60894;42.544;1.516;2023-04-24T08:28:02;3.55;;;1.10;;
72771;SDS011;60894;42.544;1.516;2023-04-24T08:30:29;6.37;;;1.13;;
72771;SDS011;60894;42.544;1.516;2023-04-24T08:32:57;3.25;;;0.90;;
72771;SDS011;60894;42.544;1.516;2023-04-24T08:35:24;2.03;;;0.90;;
72771;SDS011;60894;42.544;1.516;2023-04-24T08:37:52;3.40;;;0.90;;
72771;SDS011;60894;42.544;1.516;2023-04-24T08:40:20;2.95;;;1.05;;
72771;SDS011;60894;42.544;1.516;2023-04-24T08:42:53;2.33;;;0.70;;
72771;SDS011;60894;42.544;1.516;2023-04-24T08:45:21;2.97;;;0.60;;
72771;SDS011;60894;42.544;1.516;2023-04-24T08:47:49;3.40;;;0.82;;
72771;SDS011;60894;42.544;1.516;2023-04-24T08:50:19;1.02;;;0.68;;
72771;SDS011;60894;42.544;1.516;2023-04-24T08:52:47;2.40;;;0.93;;
72771;SDS011;60894;42.544;1.516;2023-04-24T08:55:18;1.90;;;0.70;;
72771;SDS011;60894;42.544;1.516;2023-04-24T08:57:45;3.22;;;0.90;;
72771;SDS011;60894;42.544;1.516;2023-04-24T09:00:16;4.20;;;0.90;;
72771;SDS011;60894;42.544;1.516;2023-04-24T09:02:44;2.80;;;0.77;;
72771;SDS011;60894;42.544;1.516;2023-04-24T09:05:13;2.25;;;0.70;;
72771;SDS011;60894;42.544;1.516;2023-04-24T09:07:44;3.20;;;0.80;;
72771;SDS011;60894;42.544;1.516;2023-04-24T09:10:13;2.58;;;0.88;;
72771;SDS011;60894;42.544;1.516;2023-04-24T09:12:40;2.75;;;1.00;;
72771;SDS011;60894;42.544;1.516;2023-04-24T09:15:08;3.92;;;1.30;;
72771;SDS011;60894;42.544;1.516;2023-04-24T09:17:36;3.65;;;1.20;;
72771;SDS011;60894;42.544;1.516;2023-04-24T09:20:04;1.63;;;0.60;;
72771;SDS011;60894;42.544;1.516;2023-04-24T09:22:32;4.90;;;0.80;;
72771;SDS011;60894;42.544;1.516;2023-04-24T09:25:01;2.10;;;0.75;;
72771;SDS011;60894;42.544;1.516;2023-04-24T09:27:29;1.58;;;0.40;;
72771;SDS011;60894;42.544;1.516;2023-04-24T09:29:57;2.00;;;0.50;;
72771;SDS011;60894;42.544;1.516;2023-04-24T09:32:25;2.83;;;0.40;;
72771;SDS011;60894;42.544;1.516;2023-04-24T09:35:07;4.05;;;1.25;;
72771;SDS011;60894;42.544;1.516;2023-04-24T09:37:35;2.75;;;0.60;;
72771;SDS011;60894;42.544;1.516;2023-04-24T09:40:17;2.53;;;0.50;;
72771;SDS011;60894;42.544;1.516;2023-04-24T09:42:46;2.05;;;0.32;;
72771;SDS011;60894;42.544;1.516;2023-04-24T09:45:18;2.07;;;0.60;;
72771;SDS011;60894;42.544;1.516;2023-04-24T09:47:57;2.67;;;0.50;;
72771;SDS011;60894;42.544;1.516;2023-04-24T09:50:23;0.30;;;0.20;;
72771;SDS011;60894;42.544;1.516;2023-04-24T09:52:55;0.40;;;0.25;;
72771;SDS011;60894;42.544;1.516;2023-04-24T09:55:25;4.18;;;0.40;;
72771;SDS011;60894;42.544;1.516;2023-04-24T09:57:52;2.07;;;0.40;;
72771;SDS011;60894;42.544;1.516;2023-04-24T10:00:24;1.50;;;0.40;;
72771;SDS011;60894;42.544;1.516;2023-04-24T10:02:55;2.13;;;0.75;;
72771;SDS011;60894;42.544;1.516;2023-04-24T10:05:24;0.98;;;0.47;;
72771;SDS011;60894;42.544;1.516;2023-04-24T10:07:55;1.80;;;0.57;;
72771;SDS011;60894;42.544;1.516;2023-04-24T10:10:24;0.90;;;0.30;;
72771;SDS011;60894;42.544;1.516;2023-04-24T10:12:52;1.58;;;0.32;;
72771;SDS011;60894;42.544;1.516;2023-04-24T10:15:19;0.90;;;0.30;;
72771;SDS011;60894;42.544;1.516;2023-04-24T10:17:47;1.55;;;0.40;;
72771;SDS011;60894;42.544;1.516;2023-04-24T10:20:18;2.38;;;0.38;;
72771;SDS011;60894;42.544;1.516;2023-04-24T10:22:49;2.00;;;0.40;;
72771;SDS011;60894;42.544;1.516;2023-04-24T10:25:20;1.85;;;0.57;;
72771;SDS011;60894;42.544;1.516;2023-04-24T10:27:52;0.30;;;0.20;;
72771;SDS011;60894;42.544;1.516;2023-04-24T10:30:22;3.80;;;0.95;;
72771;SDS011;60894;42.544;1.516;2023-04-24T10:32:50;2.50;;;0.95;;
72771;SDS011;60894;42.544;1.516;2023-04-24T10:35:17;2.00;;;0.70;;
72771;SDS011;60894;42.544;1.516;2023-04-24T10:37:48;3.42;;;0.90;;
72771;SDS011;60894;42.544;1.516;2023-04-24T10:40:17;8.00;;;3.40;;
72771;SDS011;60894;42.544;1.516;2023-04-24T10:42:46;2.28;;;0.77;;
72771;SDS011;60894;42.544;1.516;2023-04-24T10:45:18;4.50;;;2.10;;
72771;SDS011;60894;42.544;1.516;2023-04-24T10:47:56;0.97;;;0.40;;
72771;SDS011;60894;42.544;1.516;2023-04-24T10:50:29;0.88;;;0.50;;
72771;SDS011;60894;42.544;1.516;2023-04-24T10:53:11;0.98;;;0.60;;
72771;SDS011;60894;42.544;1.516;2023-04-24T10:55:42;0.90;;;0.40;;
72771;SDS011;60894;42.544;1.516;2023-04-24T10:58:10;0.40;;;0.40;;
72771;SDS011;60894;42.544;1.516;2023-04-24T11:00:39;0.83;;;0.43;;
72771;SDS011;60894;42.544;1.516;2023-04-24T11:03:22;0.47;;;0.40;;
72771;SDS011;60894;42.544;1.516;2023-04-24T11:05:55;0.60;;;0.40;;
72771;SDS011;60894;42.544;1.516;2023-04-24T11:08:25;1.40;;;0.45;;
72771;SDS011;60894;42.544;1.516;2023-04-24T11:10:55;3.95;;;1.70;;
72771;SDS011;60894;42.544;1.516;2023-04-24T11:16:29;0.43;;;0.40;;
72771;SDS011;60894;42.544;1.516;2023-04-24T11:19:02;1.95;;;0.60;;
72771;SDS011;60894;42.544;1.516;2023-04-24T11:21:31;3.08;;;0.55;;
72771;SDS011;60894;42.544;1.516;2023-04-24T11:23:58;1.27;;;0.40;;
72771;SDS011;60894;42.544;1.516;2023-04-24T11:27:09;0.30;;;0.30;;
72771;SDS011;60894;42.544;1.516;2023-04-24T11:29:41;1.02;;;0.47;;
72771;SDS011;60894;42.544;1.516;2023-04-24T11:32:24;1.25;;;0.50;;
72771;SDS011;60894;42.544;1.516;2023-04-24T11:34:53;1.45;;;0.50;;
72771;SDS011;60894;42.544;1.516;2023-04-24T11:37:21;1.13;;;0.50;;
72771;SDS011;60894;42.544;1.516;2023-04-24T11:39:51;1.60;;;0.50;;
72771;SDS011;60894;42.544;1.516;2023-04-24T11:42:22;1.00;;;0.40;;
72771;SDS011;60894;42.544;1.516;2023-04-24T11:44:51;3.03;;;0.85;;
72771;SDS011;60894;42.544;1.516;2023-04-24T11:47:20;2.50;;;0.80;;
72771;SDS011;60894;42.544;1.516;2023-04-24T11:49:54;2.95;;;0.60;;
72771;SDS011;60894;42.544;1.516;2023-04-24T11:52:21;2.83;;;0.57;;
72771;SDS011;60894;42.544;1.516;2023-04-24T11:54:48;0.95;;;0.50;;
72771;SDS011;60894;42.544;1.516;2023-04-24T11:57:16;1.48;;;0.47;;
72771;SDS011;60894;42.544;1.516;2023-04-24T11:59:45;0.73;;;0.30;;
72771;SDS011;60894;42.544;1.516;2023-04-24T12:02:21;2.05;;;0.57;;
72771;SDS011;60894;42.544;1.516;2023-04-24T12:04:48;1.43;;;0.40;;
72771;SDS011;60894;42.544;1.516;2023-04-24T12:07:16;0.85;;;0.40;;
72771;SDS011;60894;42.544;1.516;2023-04-24T12:09:43;0.73;;;0.45;;
72771;SDS011;60894;42.544;1.516;2023-04-24T12:12:11;1.63;;;0.50;;
72771;SDS011;60894;42.544;1.516;2023-04-24T12:14:43;3.35;;;0.43;;
72771;SDS011;60894;42.544;1.516;2023-04-24T12:17:11;0.60;;;0.30;;
72771;SDS011;60894;42.544;1.516;2023-04-24T12:19:44;0.65;;;0.40;;
72771;SDS011;60894;42.544;1.516;2023-04-24T12:22:11;2.50;;;0.47;;
72771;SDS011;60894;42.544;1.516;2023-04-24T12:27:23;0.90;;;0.38;;
72771;SDS011;60894;42.544;1.516;2023-04-24T12:29:53;1.50;;;0.37;;
72771;SDS011;60894;42.544;1.516;2023-04-24T12:32:22;0.93;;;0.40;;
72771;SDS011;60894;42.544;1.516;2023-04-24T12:34:51;0.43;;;0.35;;
72771;SDS011;60894;42.544;1.516;2023-04-24T12:37:19;0.93;;;0.30;;
72771;SDS011;60894;42.544;1.516;2023-04-24T12:42:30;1.90;;;0.50;;
72771;SDS011;60894;42.544;1.516;2023-04-24T12:44:58;2.13;;;0.50;;
72771;SDS011;60894;42.544;1.516;2023-04-24T12:47:26;1.50;;;0.40;;
72771;SDS011;60894;42.544;1.516;2023-04-24T12:49:55;0.57;;;0.40;;
72771;SDS011;60894;42.544;1.516;2023-04-24T12:52:21;0.88;;;0.50;;
72771;SDS011;60894;42.544;1.516;2023-04-24T12:54:52;3.93;;;0.40;;
72771;SDS011;60894;42.544;1.516;2023-04-24T12:57:20;1.58;;;0.40;;
72771;SDS011;60894;42.544;1.516;2023-04-24T12:59:47;1.20;;;0.40;;
72771;SDS011;60894;42.544;1.516;2023-04-24T13:02:14;0.50;;;0.40;;
72771;SDS011;60894;42.544;1.516;2023-04-24T13:04:43;0.55;;;0.32;;
72771;SDS011;60894;42.544;1.516;2023-04-24T13:07:13;1.03;;;0.40;;
72771;SDS011;60894;42.544;1.516;2023-04-24T13:09:40;1.83;;;0.60;;
72771;SDS011;60894;42.544;1.516;2023-04-24T13:12:08;1.10;;;0.55;;
72771;SDS011;60894;42.544;1.516;2023-04-24T13:14:35;1.38;;;0.47;;
72771;SDS011;60894;42.544;1.516;2023-04-24T13:17:02;0.85;;;0.40;;
72771;SDS011;60894;42.544;1.516;2023-04-24T13:19:34;1.87;;;0.40;;
72771;SDS011;60894;42.544;1.516;2023-04-24T13:22:02;1.85;;;0.40;;
72771;SDS011;60894;42.544;1.516;2023-04-24T13:24:32;0.98;;;0.47;;
72771;SDS011;60894;42.544;1.516;2023-04-24T13:26:59;0.32;;;0.32;;
72771;SDS011;60894;42.544;1.516;2023-04-24T13:29:26;1.48;;;0.40;;
72771;SDS011;60894;42.544;1.516;2023-04-24T13:31:53;3.13;;;0.60;;
72771;SDS011;60894;42.544;1.516;2023-04-24T13:34:21;1.50;;;0.50;;
72771;SDS011;60894;42.544;1.516;2023-04-24T13:36:49;0.85;;;0.40;;
72771;SDS011;60894;42.544;1.516;2023-04-24T13:39:16;0.98;;;0.40;;
72771;SDS011;60894;42.544;1.516;2023-04-24T13:41:44;1.10;;;0.70;;
72771;SDS011;60894;42.544;1.516;2023-04-24T13:44:12;1.97;;;0.40;;
72771;SDS011;60894;42.544;1.516;2023-04-24T13:46:40;0.68;;;0.40;;
72771;SDS011;60894;42.544;1.516;2023-04-24T13:49:08;1.60;;;0.40;;
72771;SDS011;60894;42.544;1.516;2023-04-24T13:51:35;0.63;;;0.30;;
72771;SDS011;60894;42.544;1.516;2023-04-24T13:54:02;2.13;;;0.50;;
72771;SDS011;60894;42.544;1.516;2023-04-24T13:56:29;1.77;;;0.50;;
72771;SDS011;60894;42.544;1.516;2023-04-24T13:58:57;0.70;;;0.30;;
72771;SDS011;60894;42.544;1.516;2023-04-24T14:01:25;0.32;;;0.30;;
72771;SDS011;60894;42.544;1.516;2023-04-24T14:03:52;1.30;;;0.60;;
72771;SDS011;60894;42.544;1.516;2023-04-24T14:06:19;1.13;;;0.47;;
72771;SDS011;60894;42.544;1.516;2023-04-24T14:08:47;0.73;;;0.30;;
72771;SDS011;60894;42.544;1.516;2023-04-24T14:11:14;3.80;;;0.60;;
72771;SDS011;60894;42.544;1.516;2023-04-24T14:13:41;4.10;;;0.50;;
72771;SDS011;60894;42.544;1.516;2023-04-24T14:16:10;0.80;;;0.40;;
72771;SDS011;60894;42.544;1.516;2023-04-24T14:18:37;1.17;;;0.63;;
72771;SDS011;60894;42.544;1.516;2023-04-24T14:21:04;2.75;;;0.45;;
72771;SDS011;60894;42.544;1.516;2023-04-24T14:23:31;0.37;;;0.37;;
72771;SDS011;60894;42.544;1.516;2023-04-24T14:25:58;2.15;;;0.50;;
72771;SDS011;60894;42.544;1.516;2023-04-24T14:28:25;1.33;;;0.40;;
72771;SDS011;60894;42.544;1.516;2023-04-24T14:30:52;0.43;;;0.35;;
72771;SDS011;60894;42.544;1.516;2023-04-24T14:33:21;0.35;;;0.30;;
72771;SDS011;60894;42.544;1.516;2023-04-24T14:35:48;0.67;;;0.43;;
72771;SDS011;60894;42.544;1.516;2023-04-24T14:38:15;3.13;;;0.98;;
72771;SDS011;60894;42.544;1.516;2023-04-24T14:40:42;1.33;;;0.52;;
72771;SDS011;60894;42.544;1.516;2023-04-24T14:43:09;1.23;;;0.77;;
72771;SDS011;60894;42.544;1.516;2023-04-24T14:45:36;1.20;;;0.43;;
72771;SDS011;60894;42.544;1.516;2023-04-24T14:48:03;0.77;;;0.30;;
72771;SDS011;60894;42.544;1.516;2023-04-24T14:50:32;0.45;;;0.35;;
72771;SDS011;60894;42.544;1.516;2023-04-24T14:52:59;0.57;;;0.32;;
72771;SDS011;60894;42.544;1.516;2023-04-24T14:55:27;1.10;;;0.40;;
72771;SDS011;60894;42.544;1.516;2023-04-24T14:57:54;2.33;;;0.80;;
72771;SDS011;60894;42.544;1.516;2023-04-24T15:00:21;1.70;;;0.83;;
72771;SDS011;60894;42.544;1.516;2023-04-24T15:02:49;2.80;;;0.70;;